sensor_id;sensor_type;location;lat;lon;timestamp;P1;durP1;ratioP1;P2;durP2;ratioP2
39728;SDS011;25402;42.004;23.088;2023-12-29T00:00:51;58.50;;;24.65;;
39728;SDS011;25402;42.004;23.088;2023-12-29T00:03:18;52.88;;;23.52;;
39728;SDS011;25402;42.004;23.088;2023-12-29T00:05:45;50.42;;;23.75;;
39728;SDS011;25402;42.004;23.088;2023-12-29T00:08:12;49.50;;;22.33;;
39728;SDS011;25402;42.004;23.088;2023-12-29T00:10:39;51.40;;;22.40;;
39728;SDS011;25402;42.004;23.088;2023-12-29T00:13:06;44.30;;;20.40;;
39728;SDS011;25402;42.004;23.088;2023-12-29T00:15:33;44.40;;;20.27;;
39728;SDS011;25402;42.004;23.088;2023-12-29T00:18:02;52.22;;;22.05;;
39728;SDS011;25402;42.004;23.088;2023-12-29T00:20:29;54.95;;;23.45;;
39728;SDS011;25402;42.004;23.088;2023-12-29T00:22:56;46.05;;;21.20;;
39728;SDS011;25402;42.004;23.088;2023-12-29T00:25:24;51.25;;;23.05;;
39728;SDS011;25402;42.004;23.088;2023-12-29T00:27:51;45.92;;;21.75;;
39728;SDS011;25402;42.004;23.088;2023-12-29T00:30:18;42.47;;;19.88;;
39728;SDS011;25402;42.004;23.088;2023-12-29T00:32:45;42.50;;;20.75;;
39728;SDS011;25402;42.004;23.088;2023-12-29T00:35:14;47.30;;;20.73;;
39728;SDS011;25402;42.004;23.088;2023-12-29T00:37:41;53.13;;;21.27;;
39728;SDS011;25402;42.004;23.088;2023-12-29T00:40:09;50.22;;;21.38;;
39728;SDS011;25402;42.004;23.088;2023-12-29T00:42:37;46.25;;;21.08;;
39728;SDS011;25402;42.004;23.088;2023-12-29T00:45:04;47.10;;;21.02;;
39728;SDS011;25402;42.004;23.088;2023-12-29T00:47:32;43.90;;;20.88;;
39728;SDS011;25402;42.004;23.088;2023-12-29T00:49:59;49.17;;;21.75;;
39728;SDS011;25402;42.004;23.088;2023-12-29T00:52:28;53.63;;;23.38;;
39728;SDS011;25402;42.004;23.088;2023-12-29T00:54:55;57.80;;;24.20;;
39728;SDS011;25402;42.004;23.088;2023-12-29T00:57:23;49.60;;;23.92;;
39728;SDS011;25402;42.004;23.088;2023-12-29T00:59:50;49.63;;;24.05;;
39728;SDS011;25402;42.004;23.088;2023-12-29T01:02:17;54.00;;;23.45;;
39728;SDS011;25402;42.004;23.088;2023-12-29T01:04:44;50.15;;;22.60;;
39728;SDS011;25402;42.004;23.088;2023-12-29T01:07:11;50.63;;;22.10;;
39728;SDS011;25402;42.004;23.088;2023-12-29T01:09:40;53.25;;;22.00;;
39728;SDS011;25402;42.004;23.088;2023-12-29T01:12:07;61.97;;;22.73;;
39728;SDS011;25402;42.004;23.088;2023-12-29T01:14:34;61.17;;;22.85;;
39728;SDS011;25402;42.004;23.088;2023-12-29T01:17:02;57.75;;;23.02;;
39728;SDS011;25402;42.004;23.088;2023-12-29T01:19:30;59.83;;;23.35;;
39728;SDS011;25402;42.004;23.088;2023-12-29T01:21:57;61.22;;;23.52;;
39728;SDS011;25402;42.004;23.088;2023-12-29T01:24:24;60.95;;;23.60;;
39728;SDS011;25402;42.004;23.088;2023-12-29T01:26:52;64.03;;;25.02;;
39728;SDS011;25402;42.004;23.088;2023-12-29T01:29:19;66.15;;;25.38;;
39728;SDS011;25402;42.004;23.088;2023-12-29T01:31:47;65.20;;;24.48;;
39728;SDS011;25402;42.004;23.088;2023-12-29T01:34:14;51.70;;;21.13;;
39728;SDS011;25402;42.004;23.088;2023-12-29T01:36:41;58.42;;;22.75;;
39728;SDS011;25402;42.004;23.088;2023-12-29T01:39:08;48.58;;;21.92;;
39728;SDS011;25402;42.004;23.088;2023-12-29T01:41:35;52.10;;;21.13;;
39728;SDS011;25402;42.004;23.088;2023-12-29T01:46:48;45.25;;;20.77;;
39728;SDS011;25402;42.004;23.088;2023-12-29T01:49:16;54.25;;;21.95;;
39728;SDS011;25402;42.004;23.088;2023-12-29T01:51:45;49.47;;;21.55;;
39728;SDS011;25402;42.004;23.088;2023-12-29T01:54:16;48.70;;;21.38;;
39728;SDS011;25402;42.004;23.088;2023-12-29T01:56:44;55.38;;;23.38;;
39728;SDS011;25402;42.004;23.088;2023-12-29T01:59:12;49.95;;;22.63;;
39728;SDS011;25402;42.004;23.088;2023-12-29T02:01:41;57.67;;;25.40;;
39728;SDS011;25402;42.004;23.088;2023-12-29T02:04:11;54.80;;;23.15;;
39728;SDS011;25402;42.004;23.088;2023-12-29T02:06:39;53.72;;;22.20;;
39728;SDS011;25402;42.004;23.088;2023-12-29T02:09:06;49.45;;;22.13;;
39728;SDS011;25402;42.004;23.088;2023-12-29T02:11:34;51.97;;;21.92;;
39728;SDS011;25402;42.004;23.088;2023-12-29T02:14:01;52.63;;;22.52;;
39728;SDS011;25402;42.004;23.088;2023-12-29T02:16:31;50.30;;;21.83;;
39728;SDS011;25402;42.004;23.088;2023-12-29T02:19:13;43.50;;;20.83;;
39728;SDS011;25402;42.004;23.088;2023-12-29T02:21:50;47.85;;;19.88;;
39728;SDS011;25402;42.004;23.088;2023-12-29T02:24:17;43.92;;;19.88;;
39728;SDS011;25402;42.004;23.088;2023-12-29T02:26:47;46.00;;;20.25;;
39728;SDS011;25402;42.004;23.088;2023-12-29T02:29:19;49.85;;;21.00;;
39728;SDS011;25402;42.004;23.088;2023-12-29T02:31:51;52.67;;;20.02;;
39728;SDS011;25402;42.004;23.088;2023-12-29T02:34:20;48.92;;;19.92;;
39728;SDS011;25402;42.004;23.088;2023-12-29T02:36:50;44.13;;;20.13;;
39728;SDS011;25402;42.004;23.088;2023-12-29T02:39:18;43.58;;;18.73;;
39728;SDS011;25402;42.004;23.088;2023-12-29T02:41:46;44.60;;;19.65;;
39728;SDS011;25402;42.004;23.088;2023-12-29T02:44:14;43.22;;;20.02;;
39728;SDS011;25402;42.004;23.088;2023-12-29T02:46:41;44.42;;;20.75;;
39728;SDS011;25402;42.004;23.088;2023-12-29T02:49:08;42.55;;;18.55;;
39728;SDS011;25402;42.004;23.088;2023-12-29T02:51:38;41.72;;;18.23;;
39728;SDS011;25402;42.004;23.088;2023-12-29T02:54:05;35.03;;;16.98;;
39728;SDS011;25402;42.004;23.088;2023-12-29T02:56:33;41.10;;;18.13;;
39728;SDS011;25402;42.004;23.088;2023-12-29T02:59:02;44.70;;;18.92;;
39728;SDS011;25402;42.004;23.088;2023-12-29T03:01:29;45.70;;;20.33;;
39728;SDS011;25402;42.004;23.088;2023-12-29T03:03:56;46.63;;;19.75;;
39728;SDS011;25402;42.004;23.088;2023-12-29T03:06:23;61.17;;;21.23;;
39728;SDS011;25402;42.004;23.088;2023-12-29T03:08:51;63.63;;;21.00;;
39728;SDS011;25402;42.004;23.088;2023-12-29T03:11:18;47.20;;;21.50;;
39728;SDS011;25402;42.004;23.088;2023-12-29T03:13:45;55.50;;;20.70;;
39728;SDS011;25402;42.004;23.088;2023-12-29T03:16:14;51.00;;;21.35;;
39728;SDS011;25402;42.004;23.088;2023-12-29T03:18:41;122.38;;;24.00;;
39728;SDS011;25402;42.004;23.088;2023-12-29T03:21:08;113.82;;;23.45;;
39728;SDS011;25402;42.004;23.088;2023-12-29T03:23:36;100.60;;;22.00;;
39728;SDS011;25402;42.004;23.088;2023-12-29T03:26:03;119.28;;;22.00;;
39728;SDS011;25402;42.004;23.088;2023-12-29T03:28:31;130.55;;;24.15;;
39728;SDS011;25402;42.004;23.088;2023-12-29T03:30:58;58.05;;;21.05;;
39728;SDS011;25402;42.004;23.088;2023-12-29T03:33:26;58.83;;;21.77;;
39728;SDS011;25402;42.004;23.088;2023-12-29T03:35:54;84.93;;;22.88;;
39728;SDS011;25402;42.004;23.088;2023-12-29T03:38:21;70.22;;;23.70;;
39728;SDS011;25402;42.004;23.088;2023-12-29T03:40:48;65.15;;;22.17;;
39728;SDS011;25402;42.004;23.088;2023-12-29T03:43:15;66.88;;;23.55;;
39728;SDS011;25402;42.004;23.088;2023-12-29T03:45:42;130.65;;;24.52;;
39728;SDS011;25402;42.004;23.088;2023-12-29T03:48:09;63.10;;;21.90;;
39728;SDS011;25402;42.004;23.088;2023-12-29T03:50:38;68.82;;;22.10;;
39728;SDS011;25402;42.004;23.088;2023-12-29T03:53:05;97.22;;;25.20;;
39728;SDS011;25402;42.004;23.088;2023-12-29T03:55:32;85.30;;;23.38;;
39728;SDS011;25402;42.004;23.088;2023-12-29T03:57:59;136.68;;;25.33;;
39728;SDS011;25402;42.004;23.088;2023-12-29T04:00:27;138.68;;;38.38;;
39728;SDS011;25402;42.004;23.088;2023-12-29T04:02:54;114.97;;;27.17;;
39728;SDS011;25402;42.004;23.088;2023-12-29T04:05:21;77.60;;;25.13;;
39728;SDS011;25402;42.004;23.088;2023-12-29T04:07:50;105.70;;;27.25;;
39728;SDS011;25402;42.004;23.088;2023-12-29T04:10:17;153.68;;;25.20;;
39728;SDS011;25402;42.004;23.088;2023-12-29T04:12:44;117.32;;;25.20;;
39728;SDS011;25402;42.004;23.088;2023-12-29T04:15:11;88.82;;;25.88;;
39728;SDS011;25402;42.004;23.088;2023-12-29T04:17:38;90.97;;;22.60;;
39728;SDS011;25402;42.004;23.088;2023-12-29T04:20:06;145.57;;;24.92;;
39728;SDS011;25402;42.004;23.088;2023-12-29T04:22:33;188.35;;;23.80;;
39728;SDS011;25402;42.004;23.088;2023-12-29T04:25:02;148.63;;;22.80;;
39728;SDS011;25402;42.004;23.088;2023-12-29T04:27:30;88.68;;;22.58;;
39728;SDS011;25402;42.004;23.088;2023-12-29T04:29:58;53.97;;;21.45;;
39728;SDS011;25402;42.004;23.088;2023-12-29T04:32:25;73.20;;;24.35;;
39728;SDS011;25402;42.004;23.088;2023-12-29T04:34:52;60.03;;;21.70;;
39728;SDS011;25402;42.004;23.088;2023-12-29T04:37:19;49.63;;;20.58;;
39728;SDS011;25402;42.004;23.088;2023-12-29T04:39:46;56.03;;;21.30;;
39728;SDS011;25402;42.004;23.088;2023-12-29T04:42:15;54.90;;;21.52;;
39728;SDS011;25402;42.004;23.088;2023-12-29T04:44:43;63.05;;;21.70;;
39728;SDS011;25402;42.004;23.088;2023-12-29T04:47:10;67.90;;;24.30;;
39728;SDS011;25402;42.004;23.088;2023-12-29T04:49:37;70.80;;;22.95;;
39728;SDS011;25402;42.004;23.088;2023-12-29T04:52:04;89.25;;;24.30;;
39728;SDS011;25402;42.004;23.088;2023-12-29T04:54:31;74.95;;;24.60;;
39728;SDS011;25402;42.004;23.088;2023-12-29T04:56:58;67.50;;;23.52;;
39728;SDS011;25402;42.004;23.088;2023-12-29T04:59:27;83.60;;;23.33;;
39728;SDS011;25402;42.004;23.088;2023-12-29T05:01:54;118.80;;;23.92;;
39728;SDS011;25402;42.004;23.088;2023-12-29T05:04:21;84.93;;;24.83;;
39728;SDS011;25402;42.004;23.088;2023-12-29T05:06:48;75.68;;;23.40;;
39728;SDS011;25402;42.004;23.088;2023-12-29T05:09:15;83.63;;;23.90;;
39728;SDS011;25402;42.004;23.088;2023-12-29T05:11:43;93.57;;;23.65;;
39728;SDS011;25402;42.004;23.088;2023-12-29T05:14:10;123.10;;;23.20;;
39728;SDS011;25402;42.004;23.088;2023-12-29T05:16:38;84.88;;;22.85;;
39728;SDS011;25402;42.004;23.088;2023-12-29T05:19:05;104.90;;;21.92;;
39728;SDS011;25402;42.004;23.088;2023-12-29T05:21:32;73.68;;;23.20;;
39728;SDS011;25402;42.004;23.088;2023-12-29T05:23:59;76.88;;;22.63;;
39728;SDS011;25402;42.004;23.088;2023-12-29T05:26:26;106.72;;;24.42;;
39728;SDS011;25402;42.004;23.088;2023-12-29T05:28:54;139.70;;;23.08;;
39728;SDS011;25402;42.004;23.088;2023-12-29T05:31:21;147.50;;;23.98;;
39728;SDS011;25402;42.004;23.088;2023-12-29T05:33:50;106.40;;;22.13;;
39728;SDS011;25402;42.004;23.088;2023-12-29T05:36:17;109.05;;;22.83;;
39728;SDS011;25402;42.004;23.088;2023-12-29T05:38:45;117.13;;;24.58;;
39728;SDS011;25402;42.004;23.088;2023-12-29T05:41:13;119.50;;;23.80;;
39728;SDS011;25402;42.004;23.088;2023-12-29T05:43:40;157.25;;;23.58;;
39728;SDS011;25402;42.004;23.088;2023-12-29T05:46:08;118.15;;;23.85;;
39728;SDS011;25402;42.004;23.088;2023-12-29T05:48:37;127.72;;;23.60;;
39728;SDS011;25402;42.004;23.088;2023-12-29T05:51:07;110.07;;;23.70;;
39728;SDS011;25402;42.004;23.088;2023-12-29T05:53:35;90.00;;;22.45;;
39728;SDS011;25402;42.004;23.088;2023-12-29T05:56:03;77.72;;;22.63;;
39728;SDS011;25402;42.004;23.088;2023-12-29T05:58:30;63.58;;;21.63;;
39728;SDS011;25402;42.004;23.088;2023-12-29T06:00:58;64.97;;;21.45;;
39728;SDS011;25402;42.004;23.088;2023-12-29T06:03:25;60.30;;;20.98;;
39728;SDS011;25402;42.004;23.088;2023-12-29T06:05:53;61.63;;;20.65;;
39728;SDS011;25402;42.004;23.088;2023-12-29T06:08:21;67.25;;;20.70;;
39728;SDS011;25402;42.004;23.088;2023-12-29T06:10:48;67.75;;;20.50;;
39728;SDS011;25402;42.004;23.088;2023-12-29T06:13:16;51.33;;;19.08;;
39728;SDS011;25402;42.004;23.088;2023-12-29T06:15:43;53.28;;;18.67;;
39728;SDS011;25402;42.004;23.088;2023-12-29T06:18:11;58.47;;;19.63;;
39728;SDS011;25402;42.004;23.088;2023-12-29T06:20:38;70.68;;;19.60;;
39728;SDS011;25402;42.004;23.088;2023-12-29T06:23:05;53.97;;;21.17;;
39728;SDS011;25402;42.004;23.088;2023-12-29T06:25:34;66.97;;;19.63;;
39728;SDS011;25402;42.004;23.088;2023-12-29T06:28:01;82.65;;;21.15;;
39728;SDS011;25402;42.004;23.088;2023-12-29T06:30:31;67.30;;;22.33;;
39728;SDS011;25402;42.004;23.088;2023-12-29T06:32:58;65.00;;;23.02;;
39728;SDS011;25402;42.004;23.088;2023-12-29T06:35:25;66.45;;;23.13;;
39728;SDS011;25402;42.004;23.088;2023-12-29T06:37:53;55.53;;;21.98;;
39728;SDS011;25402;42.004;23.088;2023-12-29T06:40:20;57.17;;;22.00;;
39728;SDS011;25402;42.004;23.088;2023-12-29T06:42:48;58.15;;;21.63;;
39728;SDS011;25402;42.004;23.088;2023-12-29T06:45:15;60.17;;;22.17;;
39728;SDS011;25402;42.004;23.088;2023-12-29T06:47:43;71.60;;;22.30;;
39728;SDS011;25402;42.004;23.088;2023-12-29T06:50:10;76.30;;;21.85;;
39728;SDS011;25402;42.004;23.088;2023-12-29T06:52:38;98.18;;;21.08;;
39728;SDS011;25402;42.004;23.088;2023-12-29T06:55:05;103.10;;;22.15;;
39728;SDS011;25402;42.004;23.088;2023-12-29T06:57:33;107.43;;;20.88;;
39728;SDS011;25402;42.004;23.088;2023-12-29T07:00:02;63.58;;;21.10;;
39728;SDS011;25402;42.004;23.088;2023-12-29T07:02:30;85.07;;;21.88;;
39728;SDS011;25402;42.004;23.088;2023-12-29T07:04:57;96.18;;;20.70;;
39728;SDS011;25402;42.004;23.088;2023-12-29T07:07:24;97.03;;;21.38;;
39728;SDS011;25402;42.004;23.088;2023-12-29T07:09:52;62.80;;;21.17;;
39728;SDS011;25402;42.004;23.088;2023-12-29T07:12:19;58.08;;;20.00;;
39728;SDS011;25402;42.004;23.088;2023-12-29T07:14:46;57.28;;;20.42;;
39728;SDS011;25402;42.004;23.088;2023-12-29T07:17:14;72.38;;;21.27;;
39728;SDS011;25402;42.004;23.088;2023-12-29T07:19:41;58.03;;;21.20;;
39728;SDS011;25402;42.004;23.088;2023-12-29T07:22:09;95.03;;;20.30;;
39728;SDS011;25402;42.004;23.088;2023-12-29T07:24:36;69.00;;;21.33;;
39728;SDS011;25402;42.004;23.088;2023-12-29T07:27:04;53.28;;;20.55;;
39728;SDS011;25402;42.004;23.088;2023-12-29T07:29:31;76.10;;;21.23;;
39728;SDS011;25402;42.004;23.088;2023-12-29T07:31:58;100.20;;;24.60;;
39728;SDS011;25402;42.004;23.088;2023-12-29T07:34:27;69.88;;;22.00;;
39728;SDS011;25402;42.004;23.088;2023-12-29T07:36:56;66.88;;;21.60;;
39728;SDS011;25402;42.004;23.088;2023-12-29T07:39:23;72.65;;;20.88;;
39728;SDS011;25402;42.004;23.088;2023-12-29T07:41:50;83.95;;;22.17;;
39728;SDS011;25402;42.004;23.088;2023-12-29T07:44:18;61.13;;;21.10;;
39728;SDS011;25402;42.004;23.088;2023-12-29T07:46:45;85.05;;;21.52;;
39728;SDS011;25402;42.004;23.088;2023-12-29T07:49:12;61.55;;;21.63;;
39728;SDS011;25402;42.004;23.088;2023-12-29T07:51:41;58.80;;;20.48;;
39728;SDS011;25402;42.004;23.088;2023-12-29T07:54:09;60.70;;;19.42;;
39728;SDS011;25402;42.004;23.088;2023-12-29T07:56:36;69.03;;;21.13;;
39728;SDS011;25402;42.004;23.088;2023-12-29T07:59:03;88.88;;;21.52;;
39728;SDS011;25402;42.004;23.088;2023-12-29T08:01:31;61.95;;;20.23;;
39728;SDS011;25402;42.004;23.088;2023-12-29T08:03:59;84.68;;;20.73;;
39728;SDS011;25402;42.004;23.088;2023-12-29T08:06:26;87.20;;;20.55;;
39728;SDS011;25402;42.004;23.088;2023-12-29T08:08:55;79.38;;;22.20;;
39728;SDS011;25402;42.004;23.088;2023-12-29T08:11:22;67.15;;;22.52;;
39728;SDS011;25402;42.004;23.088;2023-12-29T08:13:49;57.50;;;21.35;;
39728;SDS011;25402;42.004;23.088;2023-12-29T08:16:16;71.95;;;24.92;;
39728;SDS011;25402;42.004;23.088;2023-12-29T08:18:44;70.82;;;24.73;;
39728;SDS011;25402;42.004;23.088;2023-12-29T08:21:16;56.25;;;21.92;;
39728;SDS011;25402;42.004;23.088;2023-12-29T08:23:44;72.80;;;24.20;;
39728;SDS011;25402;42.004;23.088;2023-12-29T08:26:13;81.93;;;28.77;;
39728;SDS011;25402;42.004;23.088;2023-12-29T08:28:41;81.68;;;29.67;;
39728;SDS011;25402;42.004;23.088;2023-12-29T08:31:10;65.53;;;25.92;;
39728;SDS011;25402;42.004;23.088;2023-12-29T08:33:37;70.70;;;25.52;;
39728;SDS011;25402;42.004;23.088;2023-12-29T08:36:04;63.15;;;23.30;;
39728;SDS011;25402;42.004;23.088;2023-12-29T08:38:32;63.60;;;21.65;;
39728;SDS011;25402;42.004;23.088;2023-12-29T08:40:59;46.80;;;20.13;;
39728;SDS011;25402;42.004;23.088;2023-12-29T08:43:27;52.92;;;19.33;;
39728;SDS011;25402;42.004;23.088;2023-12-29T08:45:54;58.28;;;19.10;;
39728;SDS011;25402;42.004;23.088;2023-12-29T08:48:22;54.03;;;19.80;;
39728;SDS011;25402;42.004;23.088;2023-12-29T08:50:50;55.72;;;18.45;;
39728;SDS011;25402;42.004;23.088;2023-12-29T08:53:17;51.47;;;18.58;;
39728;SDS011;25402;42.004;23.088;2023-12-29T08:55:44;64.57;;;19.95;;
39728;SDS011;25402;42.004;23.088;2023-12-29T08:58:11;51.55;;;18.70;;
39728;SDS011;25402;42.004;23.088;2023-12-29T09:00:40;50.92;;;19.00;;
39728;SDS011;25402;42.004;23.088;2023-12-29T09:03:07;56.03;;;20.13;;
39728;SDS011;25402;42.004;23.088;2023-12-29T09:05:34;64.97;;;18.92;;
39728;SDS011;25402;42.004;23.088;2023-12-29T09:08:01;47.22;;;18.33;;
39728;SDS011;25402;42.004;23.088;2023-12-29T09:10:29;42.30;;;18.48;;
39728;SDS011;25402;42.004;23.088;2023-12-29T09:12:56;53.63;;;19.33;;
39728;SDS011;25402;42.004;23.088;2023-12-29T09:15:24;54.53;;;18.13;;
39728;SDS011;25402;42.004;23.088;2023-12-29T09:17:52;46.08;;;18.55;;
39728;SDS011;25402;42.004;23.088;2023-12-29T09:20:20;52.85;;;20.30;;
39728;SDS011;25402;42.004;23.088;2023-12-29T09:22:47;76.78;;;20.23;;
39728;SDS011;25402;42.004;23.088;2023-12-29T09:25:14;58.08;;;20.60;;
39728;SDS011;25402;42.004;23.088;2023-12-29T09:27:41;50.22;;;20.00;;
39728;SDS011;25402;42.004;23.088;2023-12-29T09:30:09;47.28;;;20.45;;
39728;SDS011;25402;42.004;23.088;2023-12-29T09:32:37;56.42;;;20.25;;
39728;SDS011;25402;42.004;23.088;2023-12-29T09:35:05;47.65;;;19.40;;
39728;SDS011;25402;42.004;23.088;2023-12-29T09:37:32;48.03;;;21.35;;
39728;SDS011;25402;42.004;23.088;2023-12-29T09:40:00;45.20;;;19.45;;
39728;SDS011;25402;42.004;23.088;2023-12-29T09:42:28;67.25;;;21.00;;
39728;SDS011;25402;42.004;23.088;2023-12-29T09:44:56;56.28;;;20.60;;
39728;SDS011;25402;42.004;23.088;2023-12-29T09:47:24;56.28;;;21.20;;
39728;SDS011;25402;42.004;23.088;2023-12-29T09:49:51;72.57;;;20.95;;
39728;SDS011;25402;42.004;23.088;2023-12-29T09:52:21;59.08;;;22.67;;
39728;SDS011;25402;42.004;23.088;2023-12-29T09:54:50;59.75;;;21.60;;
39728;SDS011;25402;42.004;23.088;2023-12-29T09:57:18;78.65;;;24.05;;
39728;SDS011;25402;42.004;23.088;2023-12-29T09:59:45;63.35;;;25.85;;
39728;SDS011;25402;42.004;23.088;2023-12-29T10:02:16;61.60;;;24.88;;
39728;SDS011;25402;42.004;23.088;2023-12-29T10:04:44;63.00;;;24.52;;
39728;SDS011;25402;42.004;23.088;2023-12-29T10:07:12;68.93;;;25.92;;
39728;SDS011;25402;42.004;23.088;2023-12-29T10:09:46;70.53;;;26.75;;
39728;SDS011;25402;42.004;23.088;2023-12-29T10:12:17;88.82;;;33.03;;
39728;SDS011;25402;42.004;23.088;2023-12-29T10:14:46;86.55;;;33.47;;
39728;SDS011;25402;42.004;23.088;2023-12-29T10:17:27;92.43;;;33.55;;
39728;SDS011;25402;42.004;23.088;2023-12-29T10:20:06;91.50;;;33.22;;
39728;SDS011;25402;42.004;23.088;2023-12-29T10:22:40;72.13;;;30.50;;
39728;SDS011;25402;42.004;23.088;2023-12-29T10:25:16;75.97;;;29.83;;
39728;SDS011;25402;42.004;23.088;2023-12-29T10:27:45;66.43;;;28.65;;
39728;SDS011;25402;42.004;23.088;2023-12-29T10:30:12;62.88;;;26.63;;
39728;SDS011;25402;42.004;23.088;2023-12-29T10:32:39;65.25;;;25.00;;
39728;SDS011;25402;42.004;23.088;2023-12-29T10:35:10;58.05;;;24.58;;
39728;SDS011;25402;42.004;23.088;2023-12-29T10:37:37;50.95;;;23.52;;
39728;SDS011;25402;42.004;23.088;2023-12-29T10:40:05;52.28;;;23.80;;
39728;SDS011;25402;42.004;23.088;2023-12-29T10:42:48;53.13;;;24.50;;
39728;SDS011;25402;42.004;23.088;2023-12-29T10:45:18;46.15;;;21.50;;
39728;SDS011;25402;42.004;23.088;2023-12-29T10:47:46;46.80;;;21.17;;
39728;SDS011;25402;42.004;23.088;2023-12-29T10:50:13;48.13;;;22.02;;
39728;SDS011;25402;42.004;23.088;2023-12-29T10:52:40;46.30;;;21.10;;
39728;SDS011;25402;42.004;23.088;2023-12-29T10:55:08;55.08;;;26.15;;
39728;SDS011;25402;42.004;23.088;2023-12-29T10:57:37;59.47;;;26.67;;
39728;SDS011;25402;42.004;23.088;2023-12-29T11:00:07;60.67;;;26.42;;
39728;SDS011;25402;42.004;23.088;2023-12-29T11:02:36;58.53;;;28.05;;
39728;SDS011;25402;42.004;23.088;2023-12-29T11:05:03;56.38;;;27.10;;
39728;SDS011;25402;42.004;23.088;2023-12-29T11:07:32;53.80;;;26.30;;
39728;SDS011;25402;42.004;23.088;2023-12-29T11:10:03;55.75;;;26.65;;
39728;SDS011;25402;42.004;23.088;2023-12-29T11:12:32;63.25;;;27.58;;
39728;SDS011;25402;42.004;23.088;2023-12-29T11:15:01;59.25;;;28.45;;
39728;SDS011;25402;42.004;23.088;2023-12-29T11:17:31;57.40;;;27.27;;
39728;SDS011;25402;42.004;23.088;2023-12-29T11:20:00;54.00;;;25.20;;
39728;SDS011;25402;42.004;23.088;2023-12-29T11:22:29;49.58;;;23.50;;
39728;SDS011;25402;42.004;23.088;2023-12-29T11:24:57;52.70;;;23.92;;
39728;SDS011;25402;42.004;23.088;2023-12-29T11:27:26;51.05;;;23.42;;
39728;SDS011;25402;42.004;23.088;2023-12-29T11:29:55;46.20;;;23.10;;
39728;SDS011;25402;42.004;23.088;2023-12-29T11:32:24;51.88;;;21.65;;
39728;SDS011;25402;42.004;23.088;2023-12-29T11:35:01;46.10;;;22.13;;
39728;SDS011;25402;42.004;23.088;2023-12-29T11:37:53;44.10;;;22.08;;
39728;SDS011;25402;42.004;23.088;2023-12-29T11:40:30;41.22;;;20.92;;
39728;SDS011;25402;42.004;23.088;2023-12-29T11:43:04;43.88;;;21.63;;
39728;SDS011;25402;42.004;23.088;2023-12-29T11:45:39;42.17;;;20.73;;
39728;SDS011;25402;42.004;23.088;2023-12-29T11:48:06;45.42;;;20.30;;
39728;SDS011;25402;42.004;23.088;2023-12-29T11:50:36;31.35;;;16.60;;
39728;SDS011;25402;42.004;23.088;2023-12-29T11:53:05;34.15;;;15.32;;
39728;SDS011;25402;42.004;23.088;2023-12-29T11:55:34;32.92;;;16.50;;
39728;SDS011;25402;42.004;23.088;2023-12-29T11:58:02;31.98;;;15.95;;
39728;SDS011;25402;42.004;23.088;2023-12-29T12:00:40;37.08;;;15.30;;
39728;SDS011;25402;42.004;23.088;2023-12-29T12:03:16;26.23;;;12.88;;
39728;SDS011;25402;42.004;23.088;2023-12-29T12:05:47;29.30;;;12.65;;
39728;SDS011;25402;42.004;23.088;2023-12-29T12:08:28;15.82;;;8.65;;
39728;SDS011;25402;42.004;23.088;2023-12-29T12:10:56;19.52;;;7.05;;
39728;SDS011;25402;42.004;23.088;2023-12-29T12:13:42;19.20;;;7.55;;
39728;SDS011;25402;42.004;23.088;2023-12-29T12:16:11;13.27;;;7.07;;
39728;SDS011;25402;42.004;23.088;2023-12-29T12:19:14;18.30;;;8.52;;
39728;SDS011;25402;42.004;23.088;2023-12-29T12:21:43;17.88;;;7.93;;
39728;SDS011;25402;42.004;23.088;2023-12-29T12:24:13;19.38;;;8.45;;
39728;SDS011;25402;42.004;23.088;2023-12-29T12:26:41;20.50;;;10.18;;
39728;SDS011;25402;42.004;23.088;2023-12-29T12:29:08;22.65;;;9.98;;
39728;SDS011;25402;42.004;23.088;2023-12-29T12:31:37;18.15;;;9.70;;
39728;SDS011;25402;42.004;23.088;2023-12-29T12:34:17;17.55;;;8.63;;
39728;SDS011;25402;42.004;23.088;2023-12-29T12:36:48;23.58;;;9.65;;
39728;SDS011;25402;42.004;23.088;2023-12-29T12:39:17;18.67;;;9.85;;
39728;SDS011;25402;42.004;23.088;2023-12-29T12:41:45;17.52;;;9.20;;
39728;SDS011;25402;42.004;23.088;2023-12-29T12:44:12;18.48;;;8.77;;
39728;SDS011;25402;42.004;23.088;2023-12-29T12:46:44;14.07;;;8.20;;
39728;SDS011;25402;42.004;23.088;2023-12-29T12:49:17;17.08;;;8.55;;
39728;SDS011;25402;42.004;23.088;2023-12-29T12:51:44;17.40;;;8.77;;
39728;SDS011;25402;42.004;23.088;2023-12-29T12:54:15;22.88;;;9.23;;
39728;SDS011;25402;42.004;23.088;2023-12-29T12:56:44;16.42;;;9.27;;
39728;SDS011;25402;42.004;23.088;2023-12-29T12:59:12;18.75;;;9.05;;
39728;SDS011;25402;42.004;23.088;2023-12-29T13:01:41;20.88;;;8.68;;
39728;SDS011;25402;42.004;23.088;2023-12-29T13:04:10;34.50;;;10.23;;
39728;SDS011;25402;42.004;23.088;2023-12-29T13:06:39;25.48;;;10.20;;
39728;SDS011;25402;42.004;23.088;2023-12-29T13:09:07;23.55;;;10.30;;
39728;SDS011;25402;42.004;23.088;2023-12-29T13:11:38;22.58;;;10.00;;
39728;SDS011;25402;42.004;23.088;2023-12-29T13:14:06;29.02;;;10.07;;
39728;SDS011;25402;42.004;23.088;2023-12-29T13:16:33;22.73;;;9.63;;
39728;SDS011;25402;42.004;23.088;2023-12-29T13:19:17;25.35;;;9.70;;
39728;SDS011;25402;42.004;23.088;2023-12-29T13:21:46;21.73;;;9.15;;
39728;SDS011;25402;42.004;23.088;2023-12-29T13:24:14;22.73;;;10.10;;
39728;SDS011;25402;42.004;23.088;2023-12-29T13:26:44;17.67;;;8.50;;
39728;SDS011;25402;42.004;23.088;2023-12-29T13:29:17;23.77;;;9.38;;
39728;SDS011;25402;42.004;23.088;2023-12-29T13:31:46;20.15;;;9.02;;
39728;SDS011;25402;42.004;23.088;2023-12-29T13:34:16;24.55;;;8.88;;
39728;SDS011;25402;42.004;23.088;2023-12-29T13:36:48;17.15;;;8.93;;
39728;SDS011;25402;42.004;23.088;2023-12-29T13:39:21;17.55;;;8.27;;
39728;SDS011;25402;42.004;23.088;2023-12-29T13:41:56;22.58;;;8.07;;
39728;SDS011;25402;42.004;23.088;2023-12-29T13:44:26;20.50;;;9.02;;
39728;SDS011;25402;42.004;23.088;2023-12-29T13:46:55;18.80;;;7.88;;
39728;SDS011;25402;42.004;23.088;2023-12-29T13:49:23;16.58;;;9.07;;
39728;SDS011;25402;42.004;23.088;2023-12-29T13:51:50;18.05;;;9.23;;
39728;SDS011;25402;42.004;23.088;2023-12-29T13:54:18;19.95;;;9.35;;
39728;SDS011;25402;42.004;23.088;2023-12-29T13:56:51;24.60;;;10.65;;
39728;SDS011;25402;42.004;23.088;2023-12-29T13:59:20;26.38;;;10.50;;
39728;SDS011;25402;42.004;23.088;2023-12-29T14:01:58;22.83;;;10.63;;
39728;SDS011;25402;42.004;23.088;2023-12-29T14:04:27;25.17;;;11.55;;
39728;SDS011;25402;42.004;23.088;2023-12-29T14:06:54;25.60;;;11.88;;
39728;SDS011;25402;42.004;23.088;2023-12-29T14:09:26;25.60;;;11.05;;
39728;SDS011;25402;42.004;23.088;2023-12-29T14:11:54;20.70;;;11.48;;
39728;SDS011;25402;42.004;23.088;2023-12-29T14:14:23;26.65;;;12.02;;
39728;SDS011;25402;42.004;23.088;2023-12-29T14:16:51;28.23;;;12.43;;
39728;SDS011;25402;42.004;23.088;2023-12-29T14:19:19;27.10;;;12.35;;